createdAt,value
2017-06-01T00:00:34.395Z,12.63
2017-06-01T00:01:34.490Z,12.61
2017-06-01T00:02:34.482Z,12.59
2017-06-01T00:03:34.480Z,12.63
2017-06-01T00:04:34.521Z,12.58
2017-06-01T00:05:34.581Z,12.52
2017-06-01T00:06:34.615Z,12.38
2017-06-01T00:07:34.590Z,12.45
2017-06-01T00:08:34.728Z,12.41
2017-06-01T00:09:34.714Z,12.33
2017-06-01T00:10:34.714Z,12.34
2017-06-01T00:11:34.751Z,12.36
2017-06-01T00:12:34.818Z,12.38
2017-06-01T00:13:34.833Z,12.38
2017-06-01T00:14:34.874Z,12.28
2017-06-01T00:15:34.893Z,12.23
2017-06-01T00:16:34.900Z,12.26
2017-06-01T00:17:34.979Z,12.28
2017-06-01T00:18:35.031Z,12.2
2017-06-01T00:19:35.022Z,12.18
2017-06-01T00:20:35.110Z,12.19
2017-06-01T00:21:35.127Z,12.2
2017-06-01T00:22:35.113Z,12.15
2017-06-01T00:23:35.185Z,12.07
2017-06-01T00:24:35.164Z,12.05
2017-06-01T00:25:35.202Z,12.03
2017-06-01T00:26:35.257Z,12.01
2017-06-01T00:27:35.296Z,11.94
2017-06-01T00:28:35.373Z,11.86
2017-06-01T00:29:35.383Z,11.91
2017-06-01T00:30:35.434Z,11.98
2017-06-01T00:31:35.435Z,11.94
2017-06-01T00:32:35.486Z,11.86
2017-06-01T00:33:35.509Z,11.85
2017-06-01T00:34:35.520Z,11.85
2017-06-01T00:35:35.531Z,11.85
2017-06-01T00:36:35.638Z,11.85
2017-06-01T00:37:35.634Z,11.85
2017-06-01T00:38:35.643Z,11.84
2017-06-01T00:39:35.737Z,11.81
2017-06-01T00:40:35.720Z,11.85
2017-06-01T00:41:35.750Z,11.89
2017-06-01T00:42:35.833Z,11.82
2017-06-01T00:43:35.838Z,11.84
2017-06-01T00:44:35.873Z,11.84
2017-06-01T00:45:35.909Z,11.85
2017-06-01T00:46:35.918Z,11.81
2017-06-01T00:47:36.081Z,11.81
2017-06-01T00:48:36.035Z,11.75
2017-06-01T00:49:36.033Z,11.75
2017-06-01T00:50:36.062Z,11.84
2017-06-01T00:51:36.141Z,11.76
2017-06-01T00:52:36.410Z,11.75
2017-06-01T00:53:36.144Z,11.86
2017-06-01T00:54:36.202Z,11.76
2017-06-01T00:55:36.236Z,11.7
2017-06-01T00:56:36.243Z,11.76
2017-06-01T00:57:36.618Z,11.66
2017-06-01T00:58:36.360Z,11.7
2017-06-01T00:59:36.386Z,11.67
2017-06-01T01:00:36.410Z,11.63
2017-06-01T01:01:36.442Z,11.67
2017-06-01T01:02:36.502Z,11.68
2017-06-01T01:03:36.533Z,11.6
2017-06-01T01:04:36.542Z,11.66
2017-06-01T01:05:36.543Z,11.68
2017-06-01T01:06:36.608Z,11.66
2017-06-01T01:07:36.667Z,11.64
2017-06-01T01:08:36.658Z,11.61
2017-06-01T01:09:36.679Z,11.63
2017-06-01T01:10:36.708Z,11.6
2017-06-01T01:11:36.766Z,11.46
2017-06-01T01:12:36.790Z,11.45
2017-06-01T01:13:36.846Z,11.49
2017-06-01T01:14:36.865Z,11.57
2017-06-01T01:15:36.889Z,11.49
2017-06-01T01:16:36.931Z,11.51
2017-06-01T01:17:37.002Z,11.48
2017-06-01T01:18:36.956Z,11.48
2017-06-01T01:19:37.034Z,11.45
2017-06-01T01:20:37.072Z,11.41
2017-06-01T01:21:37.065Z,11.28
2017-06-01T01:22:37.138Z,11.3
2017-06-01T01:23:37.169Z,11.34
2017-06-01T01:24:37.172Z,11.31
2017-06-01T01:25:37.226Z,11.39
2017-06-01T01:26:37.261Z,11.23
2017-06-01T01:27:37.276Z,11.35
2017-06-01T01:28:37.325Z,11.26
2017-06-01T01:29:37.384Z,11.31
2017-06-01T01:30:37.388Z,11.18
2017-06-01T01:31:37.427Z,11.23
2017-06-01T01:32:37.435Z,11.13
2017-06-01T01:33:37.515Z,11.18
2017-06-01T01:34:37.532Z,11.13
2017-06-01T01:35:37.559Z,11.18
2017-06-01T01:36:37.586Z,11.12
2017-06-01T01:37:37.617Z,11.13
2017-06-01T01:38:37.686Z,11.12
2017-06-01T01:39:37.684Z,11.18
2017-06-01T01:40:37.742Z,11.1
2017-06-01T01:41:37.777Z,11.09
2017-06-01T01:42:37.788Z,11.1
2017-06-01T01:43:37.947Z,11.15
2017-06-01T01:44:37.877Z,11.1
2017-06-01T01:45:37.884Z,11.05
2017-06-01T01:46:37.914Z,11.06
2017-06-01T01:47:37.946Z,11.05
2017-06-01T01:48:38.235Z,11.12
2017-06-01T01:49:38.019Z,11.08
2017-06-01T01:50:38.023Z,11.08
2017-06-01T01:51:38.083Z,11.09
2017-06-01T01:52:38.092Z,11.05
2017-06-01T01:53:38.247Z,11
2017-06-01T01:54:38.176Z,10.97
2017-06-01T01:55:38.185Z,10.98
2017-06-01T01:56:38.243Z,11
2017-06-01T01:57:38.284Z,10.94
2017-06-01T01:58:38.260Z,10.94
2017-06-01T01:59:38.341Z,10.97
2017-06-01T02:00:38.365Z,10.94
2017-06-01T02:01:38.374Z,10.97
2017-06-01T02:02:38.441Z,10.84
2017-06-01T02:03:38.490Z,10.88
2017-06-01T02:04:38.498Z,10.84
2017-06-01T02:05:38.518Z,10.77
2017-06-01T02:06:38.587Z,10.84
2017-06-01T02:07:38.599Z,10.84
2017-06-01T02:08:38.629Z,10.84
2017-06-01T02:09:38.693Z,10.85
2017-06-01T02:10:38.699Z,10.79
2017-06-01T02:11:38.726Z,10.83
2017-06-01T02:12:38.786Z,10.73
2017-06-01T02:13:38.798Z,10.67
2017-06-01T02:14:38.828Z,10.7
2017-06-01T02:15:38.889Z,10.7
2017-06-01T02:16:38.894Z,10.76
2017-06-01T02:17:38.905Z,10.76
2017-06-01T02:18:38.959Z,10.69
2017-06-01T02:19:39.050Z,10.7
2017-06-01T02:20:38.994Z,10.75
2017-06-01T02:21:39.052Z,10.66
2017-06-01T02:22:39.087Z,10.73
2017-06-01T02:23:39.098Z,10.75
2017-06-01T02:24:39.154Z,10.67
2017-06-01T02:25:39.211Z,10.76
2017-06-01T02:26:39.216Z,10.67
2017-06-01T02:27:39.251Z,10.72
2017-06-01T02:28:39.256Z,10.67
2017-06-01T02:29:39.406Z,10.67
2017-06-01T02:30:39.371Z,10.65
2017-06-01T02:31:39.335Z,10.63
2017-06-01T02:32:39.431Z,10.55
2017-06-01T02:33:39.442Z,10.58
2017-06-01T02:34:39.552Z,10.54
2017-06-01T02:35:39.505Z,10.57
2017-06-01T02:36:39.566Z,10.47
2017-06-01T02:37:39.549Z,10.51
2017-06-01T02:38:39.580Z,10.57
2017-06-01T02:39:39.741Z,10.57
2017-06-01T02:40:39.642Z,10.58
2017-06-01T02:41:39.720Z,10.54
2017-06-01T02:42:39.680Z,10.58
2017-06-01T02:43:39.770Z,10.47
2017-06-01T02:44:39.816Z,10.47
2017-06-01T02:45:39.807Z,10.46
2017-06-01T02:46:39.840Z,10.57
2017-06-01T02:47:39.847Z,10.39
2017-06-01T02:48:39.923Z,10.38
2017-06-01T02:49:39.934Z,10.36
2017-06-01T02:50:40.016Z,10.51
2017-06-01T02:51:40.027Z,10.47
2017-06-01T02:52:40.075Z,10.42
2017-06-01T02:53:40.095Z,10.42
2017-06-01T02:54:40.121Z,10.38
2017-06-01T02:55:40.152Z,10.35
2017-06-01T02:56:40.186Z,10.38
2017-06-01T02:57:40.210Z,10.47
2017-06-01T02:58:40.226Z,10.55
2017-06-01T02:59:40.255Z,10.39
2017-06-01T03:00:40.299Z,10.47
2017-06-01T03:01:40.294Z,10.44
2017-06-01T03:02:40.371Z,10.39
2017-06-01T03:03:40.418Z,10.44
2017-06-01T03:04:40.412Z,10.49
2017-06-01T03:05:40.455Z,10.47
2017-06-01T03:06:40.489Z,10.39
2017-06-01T03:07:40.537Z,10.39
2017-06-01T03:08:40.581Z,10.36
2017-06-01T03:09:40.624Z,10.38
2017-06-01T03:10:40.660Z,10.41
2017-06-01T03:11:40.627Z,10.52
2017-06-01T03:12:40.728Z,10.36
2017-06-01T03:13:40.727Z,10.47
2017-06-01T03:14:40.746Z,10.54
2017-06-01T03:15:40.746Z,10.42
2017-06-01T03:16:40.833Z,10.39
2017-06-01T03:17:40.867Z,10.44
2017-06-01T03:18:40.927Z,10.46
2017-06-01T03:19:40.926Z,10.42
2017-06-01T03:20:40.927Z,10.51
2017-06-01T03:21:41.007Z,10.54
2017-06-01T03:22:40.995Z,10.52
2017-06-01T03:23:41.004Z,10.38
2017-06-01T03:24:41.110Z,10.38
2017-06-01T03:25:41.228Z,10.44
2017-06-01T03:26:41.152Z,10.44
2017-06-01T03:27:41.184Z,10.39
2017-06-01T03:28:41.190Z,10.46
2017-06-01T03:29:41.191Z,10.41
2017-06-01T03:30:41.619Z,10.44
2017-06-01T03:31:41.314Z,10.51
2017-06-01T03:32:41.323Z,10.52
2017-06-01T03:33:41.376Z,10.55
2017-06-01T03:34:41.437Z,10.52
2017-06-01T03:35:41.432Z,10.58
2017-06-01T03:36:41.499Z,10.54
2017-06-01T03:37:41.509Z,10.61
2017-06-01T03:38:41.513Z,10.63
2017-06-01T03:39:41.548Z,10.63
2017-06-01T03:40:41.579Z,10.55
2017-06-01T03:41:41.637Z,10.55
2017-06-01T03:42:41.639Z,10.55
2017-06-01T03:43:41.675Z,10.55
2017-06-01T03:44:41.733Z,10.63
2017-06-01T03:45:41.737Z,10.66
2017-06-01T03:46:41.819Z,10.65
2017-06-01T03:47:41.846Z,10.67
2017-06-01T03:48:41.830Z,10.8
2017-06-01T03:49:41.887Z,10.76
2017-06-01T03:50:41.948Z,10.73
2017-06-01T03:51:41.928Z,10.7
2017-06-01T03:52:41.971Z,10.85
2017-06-01T03:53:42.026Z,10.76
2017-06-01T03:54:42.033Z,10.7
2017-06-01T03:55:42.075Z,10.79
2017-06-01T03:56:42.149Z,10.9
2017-06-01T03:57:42.149Z,10.88
2017-06-01T03:58:42.153Z,10.94
2017-06-01T03:59:42.239Z,10.85
2017-06-01T04:00:42.194Z,10.9
2017-06-01T04:01:42.241Z,10.94
2017-06-01T04:02:42.273Z,10.95
2017-06-01T04:03:42.313Z,10.98
2017-06-01T04:04:42.323Z,10.97
2017-06-01T04:05:42.374Z,11.02
2017-06-01T04:06:42.411Z,11.15
2017-06-01T04:07:42.462Z,11.2
2017-06-01T04:08:42.467Z,11.24
2017-06-01T04:09:42.511Z,11.31
2017-06-01T04:10:42.536Z,11.3
2017-06-01T04:11:42.569Z,11.38
2017-06-01T04:12:42.604Z,11.53
2017-06-01T04:13:42.626Z,11.53
2017-06-01T04:14:42.665Z,11.52
2017-06-01T04:15:42.704Z,11.67
2017-06-01T04:16:42.718Z,11.73
2017-06-01T04:17:42.766Z,11.82
2017-06-01T04:18:42.793Z,11.91
2017-06-01T04:19:42.822Z,12.28
2017-06-01T04:20:42.845Z,12.76
2017-06-01T04:21:42.891Z,13.6
2017-06-01T04:22:42.917Z,14.45
2017-06-01T04:23:42.962Z,15.26
2017-06-01T04:24:43.001Z,15.96
2017-06-01T04:25:43.005Z,16.69
2017-06-01T04:26:43.039Z,17.09
2017-06-01T04:27:43.096Z,17.52
2017-06-01T04:28:43.145Z,17.46
2017-06-01T04:29:43.177Z,17.07
2017-06-01T04:30:43.231Z,16.48
2017-06-01T04:31:43.242Z,15.92
2017-06-01T04:32:43.271Z,15.43
2017-06-01T04:33:43.311Z,14.93
2017-06-01T04:34:43.320Z,14.66
2017-06-01T04:35:43.380Z,14.2
2017-06-01T04:36:43.415Z,14.02
2017-06-01T04:37:43.430Z,13.9
2017-06-01T04:38:43.485Z,13.73
2017-06-01T04:39:43.518Z,13.69
2017-06-01T04:40:43.547Z,13.63
2017-06-01T04:41:43.591Z,13.63
2017-06-01T04:42:43.627Z,13.62
2017-06-01T04:43:43.661Z,13.54
2017-06-01T04:44:43.695Z,13.51
2017-06-01T04:45:43.687Z,13.48
2017-06-01T04:46:43.752Z,13.31
2017-06-01T04:47:43.800Z,13.29
2017-06-01T04:48:43.822Z,13.27
2017-06-01T04:49:43.858Z,13.24
2017-06-01T04:50:43.884Z,13.2
2017-06-01T04:51:44.127Z,13.17
2017-06-01T04:52:43.983Z,13.25
2017-06-01T04:53:44.019Z,13.27
2017-06-01T04:54:44.150Z,13.24
2017-06-01T04:55:44.082Z,13.24
2017-06-01T04:56:44.113Z,13.2
2017-06-01T04:57:44.141Z,13.24
2017-06-01T04:58:44.183Z,13.36
2017-06-01T04:59:44.218Z,13.21
2017-06-01T05:00:44.242Z,13.32
2017-06-01T05:01:44.278Z,13.35
2017-06-01T05:02:44.318Z,13.44
2017-06-01T05:03:44.437Z,13.42
2017-06-01T05:04:44.379Z,13.47
2017-06-01T05:05:44.415Z,13.4
2017-06-01T05:06:44.621Z,13.51
2017-06-01T05:07:44.684Z,13.54
2017-06-01T05:08:44.519Z,13.6
2017-06-01T05:09:44.542Z,13.57
2017-06-01T05:10:44.585Z,13.68
2017-06-01T05:11:44.604Z,13.88
2017-06-01T05:12:44.666Z,13.88
2017-06-01T05:13:44.699Z,14.13
2017-06-01T05:14:44.711Z,14.2
2017-06-01T05:15:44.768Z,14.38
2017-06-01T05:16:44.796Z,14.44
2017-06-01T05:17:44.840Z,14.61
2017-06-01T05:18:44.853Z,14.75
2017-06-01T05:19:44.913Z,14.71
2017-06-01T05:20:44.920Z,14.63
2017-06-01T05:21:44.973Z,14.64
2017-06-01T05:22:45.012Z,14.66
2017-06-01T05:23:45.022Z,14.56
2017-06-01T05:24:45.076Z,14.49
2017-06-01T05:25:45.097Z,14.44
2017-06-01T05:26:45.143Z,14.46
2017-06-01T05:27:45.185Z,14.49
2017-06-01T05:28:45.215Z,14.49
2017-06-01T05:29:45.217Z,14.7
2017-06-01T05:30:45.285Z,14.69
2017-06-01T05:31:45.318Z,15.02
2017-06-01T05:32:45.347Z,15.6
2017-06-01T05:33:45.912Z,16.44
2017-06-01T05:34:46.077Z,17.46
2017-06-01T05:35:45.440Z,18.23
2017-06-01T05:36:45.504Z,18.59
2017-06-01T05:37:45.520Z,19.2
2017-06-01T05:38:45.567Z,19.72
2017-06-01T05:39:45.598Z,19.98
2017-06-01T05:40:45.690Z,20.01
2017-06-01T05:41:45.645Z,20.18
2017-06-01T05:42:45.711Z,20.37
2017-06-01T05:43:45.733Z,20.54
2017-06-01T05:44:45.785Z,20.68
2017-06-01T05:45:45.817Z,20.56
2017-06-01T05:46:45.793Z,20.04
2017-06-01T05:47:45.880Z,19.61
2017-06-01T05:48:45.933Z,18.99
2017-06-01T05:49:45.953Z,18.61
2017-06-01T05:50:45.992Z,18.14
2017-06-01T05:51:46.035Z,17.69
2017-06-01T05:52:46.063Z,17.36
2017-06-01T05:53:46.103Z,17.07
2017-06-01T05:54:46.137Z,16.92
2017-06-01T05:55:46.291Z,16.73
2017-06-01T05:56:46.196Z,16.72
2017-06-01T05:57:46.226Z,16.85
2017-06-01T05:58:46.278Z,16.88
2017-06-01T05:59:46.312Z,17.05
2017-06-01T06:00:46.563Z,17.15
2017-06-01T06:01:46.396Z,17.15
2017-06-01T06:02:46.424Z,17.38
2017-06-01T06:03:46.463Z,17.31
2017-06-01T06:04:46.505Z,17.21
2017-06-01T06:05:46.543Z,17.25
2017-06-01T06:06:46.589Z,17.2
2017-06-01T06:07:46.818Z,17.12
2017-06-01T06:08:46.637Z,17.35
2017-06-01T06:09:46.664Z,17.55
2017-06-01T06:10:46.716Z,17.92
2017-06-01T06:11:46.758Z,18.36
2017-06-01T06:12:46.828Z,18.81
2017-06-01T06:13:46.827Z,19.09
2017-06-01T06:14:46.854Z,19.53
2017-06-01T06:15:46.892Z,20.01
2017-06-01T06:16:46.919Z,20.79
2017-06-01T06:17:47.144Z,21.78
2017-06-01T06:18:47.014Z,22.67
2017-06-01T06:19:47.068Z,23.29
2017-06-01T06:20:47.087Z,23.99
2017-06-01T06:21:47.135Z,24.89
2017-06-01T06:22:47.180Z,25.78
2017-06-01T06:23:47.201Z,26.61
2017-06-01T06:24:47.242Z,27.28
2017-06-01T06:25:47.264Z,27.96
2017-06-01T06:26:47.326Z,28.53
2017-06-01T06:27:47.364Z,29.08
2017-06-01T06:28:47.396Z,29.51
2017-06-01T06:29:47.441Z,29.57
2017-06-01T06:30:47.496Z,29.87
2017-06-01T06:31:47.526Z,30.47
2017-06-01T06:32:47.561Z,30.85
2017-06-01T06:33:47.606Z,30.89
2017-06-01T06:34:47.635Z,30.75
2017-06-01T06:35:47.685Z,30.79
2017-06-01T06:36:47.738Z,31.08
2017-06-01T06:37:47.746Z,31.49
2017-06-01T06:38:47.805Z,31.72
2017-06-01T06:39:47.838Z,31.9
2017-06-01T06:40:47.889Z,31.95
2017-06-01T06:41:47.937Z,31.93
2017-06-01T06:42:47.959Z,32.01
2017-06-01T06:43:48.014Z,32.24
2017-06-01T06:44:48.034Z,32.47
2017-06-01T06:45:48.106Z,32.89
2017-06-01T06:46:48.146Z,33.34
2017-06-01T06:47:48.168Z,33.71
2017-06-01T06:48:48.188Z,33.96
2017-06-01T06:49:48.272Z,33.9
2017-06-01T06:50:48.308Z,33.96
2017-06-01T06:51:48.339Z,34.11
2017-06-01T06:52:48.397Z,34.41
2017-06-01T06:53:48.467Z,34.56
2017-06-01T06:54:48.488Z,34.93
2017-06-01T06:55:48.521Z,35.13
2017-06-01T06:56:48.576Z,35.35
2017-06-01T06:57:48.618Z,35.27
2017-06-01T06:58:48.678Z,35.16
2017-06-01T06:59:48.720Z,35.21
2017-06-01T07:00:50.218Z,35.45
2017-06-01T07:01:49.427Z,35.42
2017-06-01T07:02:49.511Z,35.35
2017-06-01T07:03:49.537Z,35.2
2017-06-01T07:04:49.591Z,34.9
2017-06-01T07:05:49.630Z,35.11
2017-06-01T07:06:49.660Z,35.31
2017-06-01T07:07:49.925Z,35.45
2017-06-01T07:08:49.757Z,35.67
2017-06-01T07:09:49.861Z,35.77
2017-06-01T07:10:49.859Z,35.87
2017-06-01T07:11:49.880Z,35.98
2017-06-01T07:12:49.939Z,36.01
2017-06-01T07:13:49.992Z,35.79
2017-06-01T07:14:50.012Z,35.96
2017-06-01T07:15:50.071Z,35.72
2017-06-01T07:16:50.117Z,35.16
2017-06-01T07:17:50.153Z,34.51
2017-06-01T07:18:50.203Z,34.02
2017-06-01T07:19:50.250Z,34.03
2017-06-01T07:20:50.277Z,34.32
2017-06-01T07:21:50.344Z,34.9
2017-06-01T07:22:50.392Z,35.27
2017-06-01T07:23:50.427Z,35.71
2017-06-01T07:24:50.475Z,36.15
2017-06-01T07:25:50.517Z,36.41
2017-06-01T07:26:50.545Z,36.73
2017-06-01T07:27:50.607Z,36.93
2017-06-01T07:28:50.656Z,37.27
2017-06-01T07:29:50.713Z,37.64
2017-06-01T07:30:50.749Z,37.94
2017-06-01T07:31:50.776Z,38
2017-06-01T07:32:50.842Z,38.12
2017-06-01T07:33:50.870Z,38.25
2017-06-01T07:34:50.881Z,38.17
2017-06-01T07:35:50.970Z,38.17
2017-06-01T07:36:51.021Z,38.39
2017-06-01T07:37:51.049Z,38.06
2017-06-01T07:38:51.114Z,37.91
2017-06-01T07:39:51.157Z,38.06
2017-06-01T07:40:51.199Z,38.42
2017-06-01T07:41:51.249Z,38.74
2017-06-01T07:42:51.294Z,38.93
2017-06-01T07:43:51.344Z,39.01
2017-06-01T07:44:51.387Z,39.01
2017-06-01T07:45:51.431Z,39.04
2017-06-01T07:46:51.467Z,38.9
2017-06-01T07:47:51.497Z,38.93
2017-06-01T07:48:51.552Z,39.16
2017-06-01T07:49:51.608Z,39.34
2017-06-01T07:50:51.658Z,39.34
2017-06-01T07:51:51.749Z,38.99
2017-06-01T07:52:51.748Z,38.78
2017-06-01T07:53:51.786Z,38.7
2017-06-01T07:54:51.830Z,38.46
2017-06-01T07:55:51.884Z,38.13
2017-06-01T07:56:51.943Z,38.33
2017-06-01T07:57:51.982Z,38.54
2017-06-01T07:58:52.024Z,38.5
2017-06-01T07:59:52.053Z,38.35
2017-06-01T08:01:04.956Z,38.17
2017-06-01T08:01:52.168Z,38.44
2017-06-01T08:02:52.186Z,38.59
2017-06-01T08:03:52.261Z,38.68
2017-06-01T08:04:52.281Z,38.3
2017-06-01T08:05:52.351Z,37.93
2017-06-01T08:06:52.380Z,37.71
2017-06-01T08:07:52.441Z,37.66
2017-06-01T08:08:52.520Z,37.84
2017-06-01T08:09:52.533Z,38.33
2017-06-01T08:10:52.582Z,38.81
2017-06-01T08:11:52.633Z,39.06
2017-06-01T08:12:52.679Z,39.45
2017-06-01T08:13:52.731Z,39.31
2017-06-01T08:14:52.778Z,38.66
2017-06-01T08:15:52.815Z,38.03
2017-06-01T08:16:52.864Z,37.59
2017-06-01T08:17:52.911Z,37.36
2017-06-01T08:18:52.952Z,37.37
2017-06-01T08:19:52.994Z,37.81
2017-06-01T08:20:53.070Z,38.03
2017-06-01T08:21:53.095Z,38.54
2017-06-01T08:22:53.141Z,39.03
2017-06-01T08:23:53.191Z,39.2
2017-06-01T08:24:53.212Z,39.46
2017-06-01T08:25:53.270Z,39
2017-06-01T08:26:53.335Z,38.64
2017-06-01T08:27:53.383Z,38.76
2017-06-01T08:28:53.426Z,39.13
2017-06-01T08:29:53.471Z,39.35
2017-06-01T08:30:53.510Z,39.41
2017-06-01T08:31:53.570Z,39.23
2017-06-01T08:32:53.602Z,39.06
2017-06-01T08:33:53.676Z,39.03
2017-06-01T08:34:53.721Z,38.8
2017-06-01T08:35:53.762Z,38.71
2017-06-01T08:36:53.788Z,38.77
2017-06-01T08:37:53.850Z,38.9
2017-06-01T08:38:53.900Z,38.96
2017-06-01T08:39:53.951Z,39.04
2017-06-01T08:40:53.975Z,39.4
2017-06-01T08:41:54.040Z,39.47
2017-06-01T08:42:54.076Z,39.38
2017-06-01T08:43:54.141Z,39.41
2017-06-01T08:44:54.181Z,39.54
2017-06-01T08:45:54.236Z,39.75
2017-06-01T08:46:54.268Z,39.88
2017-06-01T08:47:54.335Z,39.96
2017-06-01T08:48:54.379Z,39.88
2017-06-01T08:49:54.425Z,39.6
2017-06-01T08:50:54.475Z,39.12
2017-06-01T08:51:54.522Z,38.64
2017-06-01T08:52:54.574Z,38.8
2017-06-01T08:53:54.623Z,39.22
2017-06-01T08:54:54.659Z,39.64
2017-06-01T08:55:54.704Z,40.05
2017-06-01T08:56:54.779Z,40.32
2017-06-01T08:57:54.820Z,40.03
2017-06-01T08:58:54.869Z,39.47
2017-06-01T08:59:54.892Z,38.68
2017-06-01T09:00:55.186Z,38.02
2017-06-01T09:01:55.151Z,38.03
2017-06-01T09:02:55.061Z,37.88
2017-06-01T09:03:55.106Z,38.27
2017-06-01T09:04:55.162Z,38.4
2017-06-01T09:05:55.202Z,38.37
2017-06-01T09:06:55.238Z,38.61
2017-06-01T09:07:55.347Z,39.01
2017-06-01T09:08:55.355Z,39.3
2017-06-01T09:09:55.390Z,39.53
2017-06-01T09:10:55.444Z,39.71
2017-06-01T09:11:55.484Z,39.75
2017-06-01T09:12:55.547Z,39.94
2017-06-01T09:13:55.591Z,40.22
2017-06-01T09:14:55.653Z,40.65
2017-06-01T09:15:55.668Z,41.04
2017-06-01T09:16:55.738Z,40.94
2017-06-01T09:17:55.778Z,40.51
2017-06-01T09:18:55.858Z,40.28
2017-06-01T09:19:55.887Z,40.03
2017-06-01T09:20:55.940Z,39.72
2017-06-01T09:21:55.967Z,39.52
2017-06-01T09:22:56.034Z,39.4
2017-06-01T09:23:56.078Z,39.4
2017-06-01T09:24:56.140Z,39.54
2017-06-01T09:25:56.191Z,39.76
2017-06-01T09:26:56.245Z,39.91
2017-06-01T09:27:56.295Z,39.87
2017-06-01T09:28:56.331Z,39.69
2017-06-01T09:29:56.371Z,39.56
2017-06-01T09:30:56.439Z,39.2
2017-06-01T09:31:56.536Z,38.92
2017-06-01T09:32:56.530Z,39.03
2017-06-01T09:33:56.568Z,39.25
2017-06-01T09:34:56.621Z,39.57
2017-06-01T09:35:56.680Z,40.03
2017-06-01T09:36:56.705Z,40.54
2017-06-01T09:37:56.789Z,40.98
2017-06-01T09:38:56.830Z,41.63
2017-06-01T09:39:56.864Z,41.96
2017-06-01T09:40:56.944Z,42.23
2017-06-01T09:41:56.989Z,42.29
2017-06-01T09:42:57.023Z,41.73
2017-06-01T09:43:57.087Z,41.26
2017-06-01T09:44:57.140Z,41.28
2017-06-01T09:45:57.206Z,41.3
2017-06-01T09:46:57.235Z,41.3
2017-06-01T09:47:57.298Z,41.65
2017-06-01T09:48:57.331Z,41.85
2017-06-01T09:49:57.388Z,42.28
2017-06-01T09:50:57.444Z,42.64
2017-06-01T09:51:57.491Z,42.6
2017-06-01T09:52:57.529Z,42.89
2017-06-01T09:53:57.584Z,43.01
2017-06-01T09:54:57.643Z,42.89
2017-06-01T09:55:57.682Z,42.85
2017-06-01T09:56:57.741Z,43.02
2017-06-01T09:57:57.781Z,43.15
2017-06-01T09:58:57.842Z,43.51
2017-06-01T09:59:57.889Z,43.66
2017-06-01T10:00:57.945Z,43.84
2017-06-01T10:01:58.057Z,43.89
2017-06-01T10:02:58.047Z,43.9
2017-06-01T10:03:58.096Z,43.95
2017-06-01T10:04:58.143Z,43.99
2017-06-01T10:05:58.216Z,43.65
2017-06-01T10:06:58.312Z,43.05
2017-06-01T10:07:58.265Z,42.69
2017-06-01T10:08:58.392Z,42.49
2017-06-01T10:09:58.389Z,42.6
2017-06-01T10:10:58.454Z,42.83
2017-06-01T10:11:58.491Z,42.89
2017-06-01T10:12:58.552Z,42.82
2017-06-01T10:13:58.597Z,42.73
2017-06-01T10:14:58.662Z,42.06
2017-06-01T10:15:58.700Z,41.07
2017-06-01T10:16:58.781Z,39.41
2017-06-01T10:17:58.780Z,38.03
2017-06-01T10:18:58.858Z,37.23
2017-06-01T10:19:58.899Z,37.39
2017-06-01T10:20:58.962Z,38.06
2017-06-01T10:21:59.035Z,38.52
2017-06-01T10:22:59.056Z,39.06
2017-06-01T10:23:59.108Z,39.3
2017-06-01T10:24:59.120Z,39.28
2017-06-01T10:25:59.206Z,39.11
2017-06-01T10:26:59.238Z,39.09
2017-06-01T10:27:59.300Z,39.01
2017-06-01T10:28:59.527Z,39.08
2017-06-01T10:29:59.398Z,39.3
2017-06-01T10:30:59.424Z,39.69
2017-06-01T10:31:59.473Z,40.28
2017-06-01T10:32:59.589Z,40.69
2017-06-01T10:33:59.580Z,40.97
2017-06-01T10:34:59.846Z,40.94
2017-06-01T10:35:59.667Z,40.51
2017-06-01T10:36:59.719Z,40.2
2017-06-01T10:37:59.778Z,39.76
2017-06-01T10:38:59.812Z,39.64
2017-06-01T10:39:59.842Z,39.53
2017-06-01T10:40:59.883Z,39.67
2017-06-01T10:41:59.943Z,39.93
2017-06-01T10:42:59.984Z,40.4
2017-06-01T10:44:00.018Z,40.77
2017-06-01T10:45:00.075Z,41.12
2017-06-01T10:46:00.120Z,41.12
2017-06-01T10:47:00.143Z,41.01
2017-06-01T10:48:00.216Z,40.94
2017-06-01T10:49:00.275Z,41.11
2017-06-01T10:50:00.289Z,41.16
2017-06-01T10:51:00.331Z,41.3
2017-06-01T10:52:00.406Z,41.32
2017-06-01T10:53:00.427Z,41.47
2017-06-01T10:54:00.473Z,41.63
2017-06-01T10:55:00.499Z,41.73
2017-06-01T10:56:00.615Z,41.68
2017-06-01T10:57:00.599Z,41.85
2017-06-01T10:58:00.646Z,42.1
2017-06-01T10:59:00.685Z,41.92
2017-06-01T11:00:00.700Z,41.44
2017-06-01T11:01:00.781Z,40.98
2017-06-01T11:02:00.819Z,40.98
2017-06-01T11:03:00.875Z,40.93
2017-06-01T11:04:00.903Z,40.81
2017-06-01T11:05:00.940Z,40.25
2017-06-01T11:06:00.987Z,39.71
2017-06-01T11:07:01.013Z,39.41
2017-06-01T11:08:01.069Z,38.71
2017-06-01T11:09:01.129Z,38.15
2017-06-01T11:10:01.137Z,37.99
2017-06-01T11:11:01.192Z,38.05
2017-06-01T11:12:01.215Z,38.08
2017-06-01T11:13:01.280Z,38.36
2017-06-01T11:14:01.327Z,38.74
2017-06-01T11:15:01.365Z,39
2017-06-01T11:16:01.425Z,39.37
2017-06-01T11:17:01.436Z,39.53
2017-06-01T11:18:01.492Z,39.64
2017-06-01T11:19:01.530Z,39.69
2017-06-01T11:20:01.565Z,39.76
2017-06-01T11:21:01.609Z,39.91
2017-06-01T11:22:01.688Z,40.01
2017-06-01T11:23:01.724Z,40.09
2017-06-01T11:24:01.712Z,39.9
2017-06-01T11:25:01.747Z,39.74
2017-06-01T11:26:01.786Z,39.52
2017-06-01T11:27:01.844Z,38.97
2017-06-01T11:28:01.887Z,38.28
2017-06-01T11:29:01.909Z,37.11
2017-06-01T11:30:01.975Z,35.68
2017-06-01T11:31:02.060Z,34.03
2017-06-01T11:32:02.046Z,32.68
2017-06-01T11:33:02.099Z,31.44
2017-06-01T11:34:02.166Z,30.29
2017-06-01T11:35:02.200Z,29.36
2017-06-01T11:36:02.218Z,28.67
2017-06-01T11:37:02.274Z,28.16
2017-06-01T11:38:02.299Z,27.41
2017-06-01T11:39:02.344Z,27.05
2017-06-01T11:40:02.383Z,26.61
2017-06-01T11:41:02.419Z,26.23
2017-06-01T11:42:02.445Z,25.88
2017-06-01T11:43:02.500Z,25.44
2017-06-01T11:44:02.552Z,25.07
2017-06-01T11:45:02.570Z,24.74
2017-06-01T11:46:02.598Z,24.55
2017-06-01T11:47:02.657Z,24.4
2017-06-01T11:48:02.693Z,24.32
2017-06-01T11:49:02.744Z,24.14
2017-06-01T11:50:02.772Z,23.97
2017-06-01T11:51:02.801Z,23.87
2017-06-01T11:52:02.843Z,23.81
2017-06-01T11:53:02.900Z,23.81
2017-06-01T11:54:02.922Z,23.84
2017-06-01T11:55:03.004Z,23.75
2017-06-01T11:56:02.995Z,23.71
2017-06-01T11:57:03.027Z,23.66
2017-06-01T11:58:03.094Z,23.71
2017-06-01T11:59:03.313Z,23.59
2017-06-01T12:00:03.164Z,23.52
2017-06-01T12:01:03.212Z,23.53
2017-06-01T12:02:03.238Z,23.53
2017-06-01T12:03:03.288Z,23.55
2017-06-01T12:04:03.342Z,23.57
2017-06-01T12:05:03.349Z,23.53
2017-06-01T12:06:03.411Z,23.45
2017-06-01T12:07:03.627Z,23.42
2017-06-01T12:08:03.464Z,23.37
2017-06-01T12:09:03.537Z,23.42
2017-06-01T12:10:03.562Z,23.28
2017-06-01T12:11:03.607Z,23.24
2017-06-01T12:12:03.634Z,23.29
2017-06-01T12:13:03.681Z,23.25
2017-06-01T12:14:04.108Z,23.15
2017-06-01T12:15:03.751Z,23.16
2017-06-01T12:16:03.802Z,23.1
2017-06-01T12:17:03.853Z,23.06
2017-06-01T12:18:03.893Z,23.03
2017-06-01T12:19:03.956Z,23
2017-06-01T12:20:03.969Z,23.07
2017-06-01T12:21:04.023Z,22.94
2017-06-01T12:22:04.058Z,23.03
2017-06-01T12:23:04.064Z,22.85
2017-06-01T12:24:04.125Z,22.85
2017-06-01T12:25:04.150Z,22.79
2017-06-01T12:26:04.168Z,22.79
2017-06-01T12:27:04.224Z,22.71
2017-06-01T12:28:04.252Z,22.73
2017-06-01T12:29:04.289Z,22.66
2017-06-01T12:30:04.329Z,22.78
2017-06-01T12:31:04.369Z,22.67
2017-06-01T12:32:04.443Z,22.66
2017-06-01T12:33:04.469Z,22.66
2017-06-01T12:34:04.507Z,22.66
2017-06-01T12:35:04.564Z,22.67
2017-06-01T12:36:04.583Z,22.69
2017-06-01T12:37:04.596Z,22.69
2017-06-01T12:38:04.665Z,22.7
2017-06-01T12:39:04.709Z,22.67
2017-06-01T12:40:04.920Z,22.73
2017-06-01T12:41:04.762Z,22.69
2017-06-01T12:42:05.023Z,22.7
2017-06-01T12:43:04.824Z,22.61
2017-06-01T12:44:04.882Z,22.55
2017-06-01T12:45:04.954Z,22.6
2017-06-01T12:46:04.964Z,22.73
2017-06-01T12:47:05.009Z,22.64
2017-06-01T12:48:05.043Z,22.69
2017-06-01T12:49:05.078Z,22.69
2017-06-01T12:50:05.131Z,22.64
2017-06-01T12:51:05.148Z,22.71
2017-06-01T12:52:05.219Z,22.66
2017-06-01T12:53:05.243Z,22.61
2017-06-01T12:54:05.272Z,22.67
2017-06-01T12:55:05.319Z,22.6
2017-06-01T12:56:05.338Z,22.55